createdAt,value
2022-07-31T00:01:02.303Z,5.65
2022-07-31T00:06:04.615Z,4.50
2022-07-31T00:11:11.759Z,3.85
2022-07-31T00:16:13.962Z,4.65
2022-07-31T00:21:19.513Z,3.83
2022-07-31T00:26:21.668Z,3.63
2022-07-31T00:31:24.277Z,3.70
2022-07-31T00:36:29.932Z,4.07
2022-07-31T00:41:43.634Z,4.13
2022-07-31T00:46:45.945Z,4.78
2022-07-31T00:51:52.241Z,4.35
2022-07-31T00:56:54.551Z,5.63
2022-07-31T01:01:57.381Z,9.95
2022-07-31T01:07:01.471Z,5.70
2022-07-31T01:12:07.876Z,3.58
2022-07-31T01:17:10.678Z,4.30
2022-07-31T01:22:58.185Z,5.28
2022-07-31T01:28:04.533Z,5.07
2022-07-31T01:33:12.379Z,4.78
2022-07-31T01:38:25.014Z,7.82
2022-07-31T01:54:03.154Z,3.80
2022-07-31T01:59:23.078Z,4.35
2022-07-31T02:04:27.679Z,4.43
2022-07-31T02:09:29.898Z,4.10
2022-07-31T02:14:32.634Z,3.78
2022-07-31T02:19:38.135Z,4.45
2022-07-31T02:24:40.374Z,4.38
2022-07-31T02:29:43.355Z,7.75
2022-07-31T02:34:46.030Z,5.53
2022-07-31T02:39:48.212Z,4.53
2022-07-31T02:44:51.038Z,4.65
2022-07-31T02:49:55.824Z,3.85
2022-07-31T02:54:58.755Z,3.90
2022-07-31T03:00:00.901Z,4.75
2022-07-31T03:05:02.763Z,4.55
2022-07-31T03:10:04.923Z,3.88
2022-07-31T03:15:11.694Z,4.22
2022-07-31T03:20:14.681Z,5.15
2022-07-31T03:25:21.441Z,4.50
2022-07-31T03:30:27.474Z,5.53
2022-07-31T03:35:29.916Z,5.68
2022-07-31T03:40:32.177Z,5.32
2022-07-31T03:45:38.814Z,5.82
2022-07-31T03:50:41.982Z,5.13
2022-07-31T03:55:45.606Z,4.88
2022-07-31T04:00:47.581Z,4.55
2022-07-31T04:05:50.816Z,4.95
2022-07-31T04:10:52.996Z,4.82
2022-07-31T04:15:55.126Z,5.88
2022-07-31T04:20:56.997Z,5.45
2022-07-31T04:25:58.816Z,5.22
2022-07-31T04:31:00.607Z,7.40
2022-07-31T04:36:02.426Z,7.85
2022-07-31T04:41:04.225Z,6.63
2022-07-31T04:46:17.383Z,6.10
2022-07-31T04:51:24.306Z,5.70
2022-07-31T04:56:42.155Z,6.45
2022-07-31T05:01:44.832Z,10.20
2022-07-31T05:06:49.335Z,7.63
2022-07-31T05:11:52.314Z,7.25
2022-07-31T05:16:54.305Z,6.72
2022-07-31T05:22:01.763Z,5.97
2022-07-31T05:27:04.828Z,6.95
2022-07-31T05:32:06.925Z,6.53
2022-07-31T05:37:08.684Z,7.20
2022-07-31T05:42:10.824Z,7.60
2022-07-31T05:47:12.610Z,8.60
2022-07-31T05:52:16.776Z,7.45
2022-07-31T05:57:33.598Z,6.50
2022-07-31T06:02:36.157Z,8.27
2022-07-31T06:07:37.901Z,6.00
2022-07-31T06:12:39.705Z,5.60
2022-07-31T06:17:44.568Z,5.47
2022-07-31T06:22:46.701Z,5.75
2022-07-31T06:27:51.979Z,5.93
2022-07-31T06:33:01.364Z,6.63
2022-07-31T06:38:10.418Z,5.65
2022-07-31T06:43:12.201Z,4.97
2022-07-31T06:48:15.101Z,5.30
2022-07-31T06:53:16.935Z,4.97
2022-07-31T06:58:18.680Z,4.43
2022-07-31T07:03:20.536Z,4.53
2022-07-31T07:08:22.526Z,4.78
2022-07-31T07:13:45.550Z,4.32
2022-07-31T07:18:48.296Z,3.80
2022-07-31T07:23:50.076Z,4.30
2022-07-31T07:28:51.888Z,4.05
2022-07-31T07:33:53.709Z,3.28
2022-07-31T07:38:56.031Z,3.70
2022-07-31T07:43:58.021Z,3.63
2022-07-31T07:48:59.900Z,3.47
2022-07-31T07:54:01.847Z,3.50
2022-07-31T07:59:03.899Z,3.30
2022-07-31T08:04:06.560Z,3.08
2022-07-31T08:09:08.477Z,3.50
2022-07-31T08:14:10.418Z,2.60
2022-07-31T08:19:17.158Z,3.03
2022-07-31T08:24:18.916Z,2.90
2022-07-31T08:29:27.460Z,2.40
2022-07-31T08:34:32.126Z,2.53
2022-07-31T08:39:34.812Z,2.60
2022-07-31T08:44:37.659Z,1.80
2022-07-31T08:49:45.408Z,2.10
2022-07-31T08:54:49.598Z,2.17
2022-07-31T08:59:52.612Z,3.08
2022-07-31T09:04:54.562Z,2.00
2022-07-31T09:09:56.361Z,2.13
2022-07-31T09:14:58.571Z,2.03
2022-07-31T09:20:00.619Z,2.13
2022-07-31T09:25:16.250Z,1.83
2022-07-31T09:30:18.048Z,2.15
2022-07-31T09:35:19.955Z,1.80
2022-07-31T09:40:21.845Z,1.70
2022-07-31T09:45:25.577Z,1.85
2022-07-31T09:50:27.551Z,1.52
2022-07-31T09:55:29.636Z,1.88
2022-07-31T10:00:31.616Z,1.20
2022-07-31T10:05:35.068Z,1.33
2022-07-31T10:10:37.929Z,2.08
2022-07-31T10:15:40.596Z,1.50
2022-07-31T10:20:48.740Z,1.52
2022-07-31T10:25:54.548Z,1.45
2022-07-31T10:30:57.296Z,1.70
2022-07-31T10:36:07.937Z,1.50
2022-07-31T10:41:32.593Z,1.60
2022-07-31T10:46:34.614Z,1.80
2022-07-31T10:51:50.178Z,1.38
2022-07-31T10:56:51.993Z,1.40
2022-07-31T11:01:55.178Z,1.80
2022-07-31T11:06:57.405Z,1.60
2022-07-31T11:11:59.167Z,1.40
2022-07-31T11:17:01.015Z,1.70
2022-07-31T11:22:31.512Z,1.48
2022-07-31T11:27:34.832Z,2.33
2022-07-31T11:32:36.669Z,1.75
2022-07-31T11:37:56.599Z,1.40
2022-07-31T11:43:24.804Z,1.58
2022-07-31T11:48:22.115Z,1.70
2022-07-31T11:53:23.929Z,1.77
2022-07-31T11:58:27.834Z,1.60
2022-07-31T12:03:36.629Z,1.90
2022-07-31T12:08:39.850Z,2.22
2022-07-31T12:13:47.344Z,1.88
2022-07-31T12:19:01.404Z,1.70
2022-07-31T12:24:12.501Z,1.30
2022-07-31T12:29:14.275Z,1.77
2022-07-31T12:34:35.188Z,1.52
2022-07-31T12:39:59.402Z,1.65
2022-07-31T12:45:19.281Z,2.00
2022-07-31T12:50:24.115Z,1.63
2022-07-31T12:55:26.147Z,1.70
2022-07-31T13:00:29.032Z,1.42
2022-07-31T13:05:30.781Z,1.48
2022-07-31T13:10:32.693Z,1.90
2022-07-31T13:15:34.630Z,1.50
2022-07-31T13:20:36.507Z,1.48
2022-07-31T13:25:38.378Z,1.48
2022-07-31T13:30:40.232Z,1.60
2022-07-31T13:35:42.246Z,1.52
2022-07-31T13:41:02.677Z,1.58
2022-07-31T13:46:04.489Z,1.70
2022-07-31T13:51:06.488Z,1.90
2022-07-31T13:56:08.296Z,2.10
2022-07-31T14:01:10.325Z,1.60
2022-07-31T14:06:12.297Z,1.70
2022-07-31T14:11:15.289Z,1.70
2022-07-31T14:16:17.380Z,1.50
2022-07-31T14:21:19.238Z,1.40
2022-07-31T14:26:21.163Z,1.70
2022-07-31T14:31:23.016Z,1.58
2022-07-31T14:36:24.888Z,1.38
2022-07-31T14:41:26.833Z,1.52
2022-07-31T14:46:28.650Z,1.70
2022-07-31T14:51:30.406Z,1.92
2022-07-31T14:56:59.621Z,1.80
2022-07-31T15:01:54.126Z,1.77
2022-07-31T15:07:07.725Z,1.88
2022-07-31T15:12:19.313Z,1.88
2022-07-31T15:17:21.153Z,1.20
2022-07-31T15:22:22.945Z,1.60
2022-07-31T15:27:25.137Z,1.95
2022-07-31T15:32:27.045Z,1.38
2022-07-31T15:37:30.388Z,1.52
2022-07-31T15:42:32.972Z,1.52
2022-07-31T15:47:35.002Z,1.60
2022-07-31T15:52:37.392Z,1.58
2022-07-31T15:57:39.728Z,1.83
2022-07-31T16:02:42.833Z,2.05
2022-07-31T16:08:29.264Z,1.50
2022-07-31T16:13:07.931Z,1.90
2022-07-31T16:18:09.851Z,1.60
2022-07-31T16:23:20.601Z,2.28
2022-07-31T16:28:22.534Z,2.17
2022-07-31T16:33:24.415Z,1.70
2022-07-31T16:38:26.416Z,1.85
2022-07-31T16:43:47.631Z,1.58
2022-07-31T16:48:50.293Z,1.63
2022-07-31T16:54:14.562Z,1.80
2022-07-31T16:59:13.999Z,1.80
2022-07-31T17:04:15.774Z,1.83
2022-07-31T17:09:18.501Z,1.60
2022-07-31T17:14:22.559Z,1.25
2022-07-31T17:19:41.540Z,1.40
2022-07-31T17:24:50.996Z,1.42
2022-07-31T17:29:53.186Z,1.30
2022-07-31T17:34:55.002Z,1.30
2022-07-31T17:39:58.064Z,1.60
2022-07-31T17:45:01.971Z,1.70
2022-07-31T17:50:04.370Z,1.50
2022-07-31T17:55:07.994Z,1.50
2022-07-31T18:00:10.291Z,1.50
2022-07-31T18:05:12.196Z,1.55
2022-07-31T18:10:14.266Z,2.10
2022-07-31T18:15:16.614Z,2.20
2022-07-31T18:20:24.137Z,1.70
2022-07-31T18:25:25.958Z,2.00
2022-07-31T18:30:30.751Z,2.05
2022-07-31T18:35:35.519Z,3.22
2022-07-31T18:40:37.353Z,4.38
2022-07-31T18:45:41.539Z,4.20
2022-07-31T18:51:02.052Z,4.28
2022-07-31T19:01:07.074Z,3.72
2022-07-31T19:06:08.861Z,3.50
2022-07-31T19:11:12.020Z,2.92
2022-07-31T19:16:15.724Z,2.63
2022-07-31T19:21:23.911Z,4.03
2022-07-31T19:26:41.402Z,2.85
2022-07-31T19:31:43.193Z,3.05
2022-07-31T19:36:46.289Z,2.00
2022-07-31T19:42:11.620Z,2.45
2022-07-31T19:47:11.820Z,2.17
2022-07-31T19:52:13.622Z,3.78
2022-07-31T19:57:15.458Z,2.30
2022-07-31T20:02:17.250Z,1.95
2022-07-31T20:07:19.038Z,1.52
2022-07-31T20:12:20.912Z,1.50
2022-07-31T20:17:22.714Z,1.73
2022-07-31T20:22:24.945Z,1.73
2022-07-31T20:27:26.837Z,1.75
2022-07-31T20:32:29.044Z,1.70
2022-07-31T20:37:30.888Z,17.33
2022-07-31T20:42:32.674Z,2.97
2022-07-31T20:47:34.429Z,2.10
2022-07-31T20:52:36.183Z,1.80
2022-07-31T20:57:38.023Z,1.90
2022-07-31T21:02:39.792Z,1.67
2022-07-31T21:07:41.675Z,1.42
2022-07-31T21:12:43.412Z,2.95
2022-07-31T21:17:45.270Z,2.42
2022-07-31T21:22:47.035Z,2.10
2022-07-31T21:27:48.857Z,1.50
2022-07-31T21:32:50.885Z,2.30
2022-07-31T21:37:55.506Z,1.80
2022-07-31T21:42:59.044Z,1.63
2022-07-31T21:48:10.199Z,1.60
2022-07-31T21:53:13.005Z,1.70
2022-07-31T21:58:14.822Z,2.10
2022-07-31T22:03:16.615Z,3.95
2022-07-31T22:08:18.689Z,2.92
2022-07-31T22:13:21.106Z,2.80
2022-07-31T22:18:23.190Z,2.30
2022-07-31T22:23:29.023Z,1.90
2022-07-31T22:28:31.032Z,2.00
2022-07-31T22:33:32.897Z,2.10
2022-07-31T22:38:34.853Z,1.77
2022-07-31T22:44:10.530Z,2.20
2022-07-31T22:54:00.752Z,1.67
2022-07-31T22:59:02.497Z,3.03
2022-07-31T23:04:04.438Z,5.50
2022-07-31T23:09:06.254Z,2.35
2022-07-31T23:14:08.236Z,2.08
2022-07-31T23:19:10.256Z,2.17
2022-07-31T23:24:12.222Z,2.38
2022-07-31T23:29:14.040Z,1.88
2022-07-31T23:34:17.068Z,2.40
2022-07-31T23:39:20.764Z,6.22
2022-07-31T23:44:25.039Z,3.90
2022-07-31T23:49:27.172Z,4.15
2022-07-31T23:54:29.162Z,4.35
2022-07-31T23:59:30.966Z,5.05
